Time;durP1;ratioP1;P1;durP2;ratioP2;P2;SDS_P1;SDS_P2;PMS_P1;PMS_P2;Temp;Humidity;BMP_temperature;BMP_pressure;BME280_temperature;BME280_humidity;BME280_pressure;Samples;Min_cycle;Max_cycle;Signal;HPM_P1;HPM_P2
2021/12/13 00:02:01;;;;;;;64.65;21.15;;;;;;;-0.51;96.73;100611.53;5117255;28;20047;-78
2021/12/13 00:04:32;;;;;;;80.40;26.92;;;;;;;-0.48;96.16;100601.78;5116623;28;20363;-78
2021/12/13 00:07:04;;;;;;;48.50;17.52;;;;;;;-0.52;96.33;100605.31;5117296;28;20073;-78
2021/12/13 00:09:34;;;;;;;54.53;18.80;;;;;;;-0.48;96.00;100612.41;5118562;28;20051;-78
2021/12/13 00:12:04;;;;;;;50.33;18.73;;;;;;;-0.53;96.21;100605.34;5116560;27;20055;-78
2021/12/13 00:14:35;;;;;;;47.90;17.45;;;;;;;-0.47;96.26;100605.34;5116773;27;20405;-78
2021/12/13 00:17:06;;;;;;;50.00;18.80;;;;;;;-0.46;96.20;100604.47;5116555;28;20059;-78
2021/12/13 00:19:37;;;;;;;50.28;18.10;;;;;;;-0.47;96.34;100597.38;5118076;27;20400;-78
2021/12/13 00:22:12;;;;;;;51.45;17.83;;;;;;;-0.34;95.74;100592.97;5116334;27;20060;-78
2021/12/13 00:24:42;;;;;;;44.35;16.90;;;;;;;-0.45;95.24;100593.81;5116496;27;20492;-78
2021/12/13 00:27:15;;;;;;;50.28;18.10;;;;;;;-0.51;96.50;100595.63;5116832;28;20070;-78
2021/12/13 00:29:47;;;;;;;50.05;18.77;;;;;;;-0.51;96.21;100593.81;5119265;27;20051;-78
2021/12/13 00:32:20;;;;;;;48.47;17.85;;;;;;;-0.50;96.07;100582.31;5117852;28;20043;-78
2021/12/13 00:34:50;;;;;;;57.63;20.23;;;;;;;-0.51;96.33;100595.63;5115860;28;20047;-78
2021/12/13 00:37:23;;;;;;;50.38;18.50;;;;;;;-0.43;95.73;100609.78;5116391;27;20489;-78
2021/12/13 00:39:53;;;;;;;48.53;17.73;;;;;;;-0.50;95.64;100610.66;5116008;28;20044;-78
2021/12/13 00:42:22;;;;;;;42.83;15.82;;;;;;;-0.52;95.96;100605.31;5117344;27;20051;-78
2021/12/13 00:44:54;;;;;;;43.15;16.63;;;;;;;-0.47;96.03;100605.34;5115863;28;20047;-78
2021/12/13 00:47:24;;;;;;;39.92;16.13;;;;;;;-0.54;95.91;100606.22;5116152;28;20504;-78
2021/12/13 00:49:55;;;;;;;43.83;15.85;;;;;;;-0.50;95.37;100608.88;5114388;28;20418;-78
2021/12/13 00:52:23;;;;;;;38.45;14.80;;;;;;;-0.51;95.24;100607.09;5117180;28;20397;-78
2021/12/13 00:54:51;;;;;;;40.00;15.05;;;;;;;-0.49;95.00;100618.59;5115863;27;20043;-78
2021/12/13 00:57:44;;;;;;;38.67;15.57;;;;;;;-0.52;94.89;100615.06;5115659;28;20108;-78
2021/12/13 01:00:18;;;;;;;37.15;14.65;;;;;;;-0.50;94.49;100618.63;5115899;28;20382;-78
2021/12/13 01:02:48;;;;;;;37.65;14.77;;;;;;;-0.54;95.61;100619.50;5116115;28;20062;-78
2021/12/13 01:05:18;;;;;;;39.72;16.38;;;;;;;-0.57;95.31;100619.50;5115779;28;20044;-78
2021/12/13 01:08:04;;;;;;;41.78;15.90;;;;;;;-0.48;95.65;100627.47;5115242;27;20052;-78
2021/12/13 01:11:10;;;;;;;45.47;16.77;;;;;;;-0.54;95.67;100622.16;5116036;27;20062;-78
2021/12/13 01:13:47;;;;;;;42.63;16.15;;;;;;;-0.52;96.17;100615.06;5115186;28;20047;-78
2021/12/13 01:16:35;;;;;;;50.95;18.65;;;;;;;-0.51;96.09;100619.50;5115276;28;20093;-78
2021/12/13 01:19:26;;;;;;;43.03;17.30;;;;;;;-0.52;95.88;100617.72;5115920;27;20568;-78
2021/12/13 01:22:13;;;;;;;39.72;15.68;;;;;;;-0.57;96.07;100628.31;5115249;27;20416;-83
2021/12/13 01:25:15;;;;;;;39.60;15.02;;;;;;;-0.47;95.84;100623.94;5115566;27;20040;-78
2021/12/13 01:27:38;;;;;;;37.47;14.85;;;;;;;-0.52;95.53;100631.88;5115161;28;20051;-78
2021/12/13 01:30:07;;;;;;;39.58;16.17;;;;;;;-0.51;95.73;100632.78;5115455;27;20043;-78
2021/12/13 01:32:38;;;;;;;52.03;20.20;;;;;;;-0.54;95.93;100633.63;5114499;27;20051;-78
2021/12/13 01:35:09;;;;;;;41.72;15.95;;;;;;;-0.47;95.39;100619.50;5115544;27;20447;-78
2021/12/13 01:37:36;;;;;;;44.92;16.63;;;;;;;-0.47;95.33;100631.88;5116594;28;20039;-78
2021/12/13 01:40:08;;;;;;;44.88;15.93;;;;;;;-0.45;94.93;100635.44;5114827;27;20485;-78
2021/12/13 01:42:36;;;;;;;42.42;17.90;;;;;;;-0.46;95.53;100644.28;5115254;28;20477;-78
2021/12/13 01:45:09;;;;;;;45.95;16.83;;;;;;;-0.46;95.10;100646.94;5114645;28;20047;-78
2021/12/13 01:47:44;;;;;;;44.47;16.38;;;;;;;-0.45;95.43;100644.25;5116057;27;20039;-78
2021/12/13 01:50:16;;;;;;;43.90;17.77;;;;;;;-0.48;95.15;100646.03;5115454;27;20039;-77
2021/12/13 01:52:45;;;;;;;48.38;17.35;;;;;;;-0.54;95.35;100646.03;5114639;28;20047;-78
2021/12/13 01:55:17;;;;;;;45.45;16.17;;;;;;;-0.51;95.22;100649.56;5114423;28;20036;-78
2021/12/13 01:57:50;;;;;;;40.05;15.50;;;;;;;-0.47;95.42;100651.34;5115517;28;20051;-78
2021/12/13 02:00:32;;;;;;;44.22;16.75;;;;;;;-0.56;95.40;100646.03;5115658;27;20119;-78
2021/12/13 02:03:02;;;;;;;37.95;15.25;;;;;;;-0.55;95.22;100647.78;5115681;27;20054;-78
2021/12/13 02:05:32;;;;;;;39.75;15.93;;;;;;;-0.55;95.26;100645.13;5114235;28;20052;-78
2021/12/13 02:08:06;;;;;;;43.30;17.38;;;;;;;-0.56;95.44;100631.88;5114096;28;20048;-78
2021/12/13 02:10:36;;;;;;;39.58;15.30;;;;;;;-0.55;95.17;100637.16;5115142;28;20064;-78
2021/12/13 02:13:09;;;;;;;51.95;20.92;;;;;;;-0.55;95.37;100629.22;5115184;27;20040;-78
2021/12/13 02:18:29;;;;;;;43.83;16.63;;;;;;;-0.50;95.40;100629.22;5115414;28;20469;-78
2021/12/13 02:21:04;;;;;;;38.85;15.23;;;;;;;-0.49;95.18;100631.00;5115528;27;20047;-78
2021/12/13 02:23:34;;;;;;;44.55;16.55;;;;;;;-0.51;95.63;100627.47;5115636;27;20051;-78
2021/12/13 02:26:02;;;;;;;43.03;16.05;;;;;;;-0.55;95.55;100633.66;5113928;28;20054;-78
2021/12/13 02:28:32;;;;;;;40.55;15.82;;;;;;;-0.53;95.40;100630.09;5113974;28;20043;-78
2021/12/13 02:31:03;;;;;;;42.53;17.15;;;;;;;-0.51;96.00;100628.34;5113904;28;20082;-78
2021/12/13 02:33:34;;;;;;;41.63;16.83;;;;;;;-0.55;96.30;100636.31;5113897;28;20054;-78
2021/12/13 02:36:07;;;;;;;45.40;17.30;;;;;;;-0.48;95.78;100635.44;5113909;28;20057;-78
2021/12/13 02:38:37;;;;;;;48.47;16.90;;;;;;;-0.49;95.54;100631.88;5114714;28;20100;-78
2021/12/13 02:41:06;;;;;;;44.67;16.92;;;;;;;-0.49;96.24;100637.19;5115075;28;20447;-78
2021/12/13 02:43:36;;;;;;;42.85;16.60;;;;;;;-0.49;96.35;100631.00;5113710;27;20043;-78
2021/12/13 02:46:03;;;;;;;45.22;16.42;;;;;;;-0.48;95.70;100616.84;5113411;27;20047;-82
2021/12/13 02:48:35;;;;;;;40.95;15.25;;;;;;;-0.50;94.98;100624.78;5113626;28;20092;-78
2021/12/13 02:51:06;;;;;;;48.00;18.00;;;;;;;-0.48;95.85;100620.38;5115194;28;20488;-78
2021/12/13 02:53:39;;;;;;;41.78;16.73;;;;;;;-0.43;95.24;100625.69;5115200;28;20139;-78
2021/12/13 02:56:07;;;;;;;39.75;15.52;;;;;;;-0.42;95.14;100627.47;5113800;28;20066;-78
2021/12/13 02:58:38;;;;;;;36.30;14.60;;;;;;;-0.45;95.67;100622.16;5113643;28;20104;-78
2021/12/13 03:01:09;;;;;;;38.05;14.15;;;;;;;-0.43;94.97;100623.03;5114386;28;20044;-78
2021/12/13 03:03:43;;;;;;;45.58;16.33;;;;;;;-0.55;95.25;100617.72;5115163;28;20044;-78
2021/12/13 03:06:13;;;;;;;56.53;19.65;;;;;;;-0.57;95.08;100615.06;5113549;28;20493;-78
2021/12/13 03:08:46;;;;;;;45.13;17.65;;;;;;;-0.51;95.51;100619.50;5113636;27;20047;-78
2021/12/13 03:11:23;;;;;;;71.15;26.15;;;;;;;-0.49;96.03;100615.06;5114277;28;20519;-78
2021/12/13 03:13:55;;;;;;;63.45;25.02;;;;;;;-0.49;95.03;100610.63;5116959;28;20093;-78
2021/12/13 03:16:25;;;;;;;40.95;15.20;;;;;;;-0.42;94.82;100605.31;5118818;28;20051;-78
2021/12/13 03:18:58;;;;;;;63.88;23.20;;;;;;;-0.48;94.92;100591.16;5117565;28;20104;-78
2021/12/13 03:22:06;;;;;;;57.28;25.25;;;;;;;-0.47;94.65;100608.00;5119401;27;20051;-78
2021/12/13 03:24:52;;;;;;;55.72;22.75;;;;;;;-0.51;95.33;100601.78;5045547;28;20107;-78
2021/12/13 03:27:31;;;;;;;40.75;15.80;;;;;;;-0.49;95.01;100609.75;5054903;28;20510;-78
2021/12/13 03:30:03;;;;;;;95.47;38.58;;;;;;;-0.50;94.58;100605.34;5054983;28;20516;-78
2021/12/13 03:32:36;;;;;;;44.55;16.60;;;;;;;-0.52;95.06;100607.09;5055374;28;20071;-78
2021/12/13 03:35:10;;;;;;;52.88;20.40;;;;;;;-0.47;95.41;100602.69;5055585;28;20052;-78
2021/12/13 03:37:38;;;;;;;45.58;17.45;;;;;;;-0.50;95.24;100613.31;5054535;28;20049;-78
2021/12/13 03:40:11;;;;;;;42.00;17.40;;;;;;;-0.49;95.71;100615.06;5054511;28;20060;-78
2021/12/13 03:42:43;;;;;;;53.03;17.65;;;;;;;-0.51;95.92;100614.19;5055001;28;20053;-78
2021/12/13 03:45:19;;;;;;;42.95;17.60;;;;;;;-0.51;95.29;100617.72;5055067;28;20049;-78
2021/12/13 03:47:51;;;;;;;51.65;23.00;;;;;;;-0.55;95.51;100610.63;5055120;28;20053;-78
2021/12/13 03:50:20;;;;;;;46.50;18.23;;;;;;;-0.53;95.41;100608.88;5055571;28;20087;-78
2021/12/13 03:52:50;;;;;;;44.70;18.13;;;;;;;-0.52;95.11;100613.28;5054243;28;20106;-78
2021/12/13 03:55:21;;;;;;;39.47;16.00;;;;;;;-0.52;95.66;100621.25;5054048;28;20060;-78
2021/12/13 03:57:52;;;;;;;41.50;17.25;;;;;;;-0.51;95.36;100617.72;5054689;28;20049;-78
2021/12/13 04:00:23;;;;;;;41.03;15.82;;;;;;;-0.51;95.20;100627.47;5072563;28;20060;-78
2021/12/13 04:02:51;;;;;;;42.20;15.70;;;;;;;-0.49;95.28;100623.03;5115714;28;20047;-77
2021/12/13 04:05:22;;;;;;;43.08;14.82;;;;;;;-0.45;95.37;100619.50;5116840;27;20096;-78
2021/12/13 04:07:51;;;;;;;45.03;16.45;;;;;;;-0.46;95.56;100626.56;5117477;28;20043;-78
2021/12/13 04:10:23;;;;;;;38.95;15.02;;;;;;;-0.47;95.49;100621.28;5116574;28;20047;-78
2021/12/13 04:12:53;;;;;;;45.55;17.88;;;;;;;-0.48;95.19;100635.44;5118194;28;20382;-78
2021/12/13 04:15:27;;;;;;;37.78;15.77;;;;;;;-0.47;95.69;100634.53;5116913;28;20044;-78
2021/12/13 04:18:01;;;;;;;39.70;17.02;;;;;;;-0.49;95.09;100626.56;5116458;28;20127;-78
2021/12/13 04:20:31;;;;;;;56.80;22.90;;;;;;;-0.54;95.36;100636.28;5117337;27;20040;-78
2021/12/13 04:23:03;;;;;;;38.10;15.35;;;;;;;-0.53;95.33;100638.06;5116962;27;20531;-78
2021/12/13 04:25:35;;;;;;;45.30;17.17;;;;;;;-0.48;95.30;100646.03;5116225;28;20043;-78
2021/12/13 04:28:06;;;;;;;41.70;15.48;;;;;;;-0.53;94.95;100653.13;5116447;28;20473;-78
2021/12/13 04:30:37;;;;;;;38.05;15.90;;;;;;;-0.48;95.04;100654.00;5116243;28;20039;-78
2021/12/13 04:33:09;;;;;;;39.00;15.13;;;;;;;-0.44;94.81;100646.03;5117388;27;20485;-78
2021/12/13 04:35:37;;;;;;;40.17;14.77;;;;;;;-0.44;95.20;100647.81;5117591;28;20044;-78
2021/12/13 04:38:07;;;;;;;40.50;15.48;;;;;;;-0.48;95.44;100648.69;5116173;28;20044;-78
2021/12/13 04:40:38;;;;;;;40.70;15.82;;;;;;;-0.46;94.97;100646.94;5116030;27;20074;-78
2021/12/13 04:43:13;;;;;;;41.67;15.23;;;;;;;-0.49;95.44;100647.78;5116957;28;20121;-78
2021/12/13 04:45:43;;;;;;;44.92;16.10;;;;;;;-0.45;95.52;100638.94;5117200;28;20516;-78
2021/12/13 04:48:12;;;;;;;42.22;16.00;;;;;;;-0.47;94.92;100634.53;5115898;28;20051;-78
2021/12/13 04:50:47;;;;;;;45.35;16.42;;;;;;;-0.54;95.38;100633.63;5115892;28;20056;-80
2021/12/13 04:53:20;;;;;;;44.85;15.93;;;;;;;-0.52;95.97;100631.00;5116516;28;20048;-78
2021/12/13 04:55:49;;;;;;;46.63;17.15;;;;;;;-0.57;95.60;100630.09;5116334;28;20051;-78
2021/12/13 04:58:18;;;;;;;53.92;18.35;;;;;;;-0.57;95.79;100623.00;5115732;27;20443;-78
2021/12/13 05:00:50;;;;;;;48.00;16.98;;;;;;;-0.52;95.95;100618.59;5115624;28;20055;-78
2021/12/13 05:03:20;;;;;;;46.58;17.75;;;;;;;-0.52;95.97;100631.88;5115965;27;20048;-78
2021/12/13 05:05:48;;;;;;;48.60;18.25;;;;;;;-0.51;95.75;100627.47;5115522;28;20043;-82
2021/12/13 05:08:17;;;;;;;49.00;17.67;;;;;;;-0.56;96.42;100634.53;5115516;27;20043;-78
2021/12/13 05:10:48;;;;;;;49.97;17.73;;;;;;;-0.53;95.87;100632.75;5114951;28;20044;-78
2021/12/13 05:13:18;;;;;;;50.67;18.25;;;;;;;-0.45;95.99;100643.41;5115655;27;20497;-78
2021/12/13 05:15:55;;;;;;;57.40;18.65;;;;;;;-0.51;95.54;100641.59;5116414;28;20047;-78
2021/12/13 05:18:24;;;;;;;51.58;18.95;;;;;;;-0.52;95.92;100652.22;5116559;28;20051;-78
2021/12/13 05:20:59;;;;;;;50.08;18.15;;;;;;;-0.54;96.21;100649.56;5115080;27;20043;-78
2021/12/13 05:23:28;;;;;;;51.58;19.40;;;;;;;-0.54;96.43;100648.69;5115485;28;20370;-77
2021/12/13 05:25:58;;;;;;;51.17;19.25;;;;;;;-0.50;96.19;100651.34;5114588;28;20039;-77
2021/12/13 05:28:30;;;;;;;53.28;19.25;;;;;;;-0.54;96.43;100648.69;5114664;28;20047;-77
2021/12/13 05:31:01;;;;;;;52.33;18.77;;;;;;;-0.53;95.58;100655.78;5116700;28;20485;-77
2021/12/13 05:33:31;;;;;;;50.80;17.65;;;;;;;-0.52;96.28;100661.06;5117113;27;20039;-76
2021/12/13 05:36:01;;;;;;;47.45;18.00;;;;;;;-0.54;95.75;100661.97;5114911;28;20066;-77
2021/12/13 05:38:32;;;;;;;48.75;18.60;;;;;;;-0.61;96.29;100658.41;5110684;28;20047;-76
2021/12/13 05:41:01;;;;;;;53.97;19.05;;;;;;;-0.52;94.98;100650.44;5112196;28;20432;-76
2021/12/13 05:43:32;;;;;;;44.55;18.55;;;;;;;-0.58;95.65;100647.78;5110682;27;20044;-77
2021/12/13 05:46:03;;;;;;;47.22;18.45;;;;;;;-0.51;95.38;100651.34;5111155;28;20047;-76
2021/12/13 05:48:44;;;;;;;47.55;16.90;;;;;;;-0.51;95.22;100651.34;5110969;28;20048;-77
2021/12/13 05:51:22;;;;;;;47.72;16.95;;;;;;;-0.58;94.76;100658.41;5111740;27;20492;-76
2021/12/13 05:53:55;;;;;;;45.40;16.95;;;;;;;-0.58;94.79;100653.09;5110856;28;20046;-76
2021/12/13 05:56:23;;;;;;;43.25;16.20;;;;;;;-0.53;95.22;100656.63;5112087;28;20040;-78
2021/12/13 05:58:54;;;;;;;48.70;16.75;;;;;;;-0.60;95.18;100660.16;5110921;28;20051;-77
2021/12/13 06:01:25;;;;;;;44.78;17.15;;;;;;;-0.60;95.40;100670.78;5111307;28;20048;-78
2021/12/13 06:03:56;;;;;;;44.65;17.05;;;;;;;-0.65;95.87;100662.78;5111719;27;20056;-77
2021/12/13 06:06:27;;;;;;;51.08;18.77;;;;;;;-0.62;95.78;100659.28;5111558;27;20055;-77
2021/12/13 06:08:59;;;;;;;39.85;16.33;;;;;;;-0.57;95.05;100660.16;5111709;28;20412;-76
2021/12/13 06:11:32;;;;;;;42.88;16.20;;;;;;;-0.60;94.83;100658.41;5112969;28;20043;-76
2021/12/13 06:14:08;;;;;;;46.92;17.10;;;;;;;-0.60;95.37;100661.06;5114410;28;20051;-78
2021/12/13 06:16:42;;;;;;;45.33;18.45;;;;;;;-0.56;94.88;100666.38;5115184;28;20043;-80
2021/12/13 06:19:13;;;;;;;45.75;17.50;;;;;;;-0.59;94.78;100668.16;5114884;28;20054;-77
2021/12/13 06:21:49;;;;;;;47.97;17.33;;;;;;;-0.62;95.17;100673.41;5114893;28;20063;-76
2021/12/13 06:24:25;;;;;;;39.13;16.30;;;;;;;-0.67;95.37;100672.53;5114730;28;20043;-77
2021/12/13 06:27:01;;;;;;;;;;;;;;;-0.65;94.61;100678.72;5116071;28;20048;-76
2021/12/13 06:29:51;;;;;;;41.22;14.98;;;;;;;-0.63;94.58;100690.22;5113918;28;19973;-83
2021/12/13 06:32:29;;;;;;;42.00;15.52;;;;;;;-0.63;94.99;100699.97;5113782;28;20048;-76
2021/12/13 06:34:59;;;;;;;41.80;15.52;;;;;;;-0.69;94.85;100711.44;5115350;28;20093;-76
2021/12/13 06:37:30;;;;;;;35.65;14.38;;;;;;;-0.73;94.51;100713.22;5113459;28;20051;-76
2021/12/13 06:40:19;;;;;;;36.25;13.65;;;;;;;-0.69;94.58;100714.09;5114228;28;20424;-77
2021/12/13 06:42:47;;;;;;;37.55;14.60;;;;;;;-0.73;94.31;100714.97;5115677;28;20060;-84
2021/12/13 06:45:26;;;;;;;42.40;20.75;;;;;;;-0.65;93.74;100707.91;5113632;28;20044;-77
2021/12/13 06:47:55;;;;;;;39.60;18.65;;;;;;;-0.72;93.86;100708.78;5113450;28;20178;-77
2021/12/13 06:50:26;;;;;;;44.33;21.67;;;;;;;-0.69;94.16;100702.59;5113769;27;20525;-76
2021/12/13 06:52:53;;;;;;;44.88;19.30;;;;;;;-0.68;94.04;100699.94;5115057;27;20047;-84
2021/12/13 06:55:21;;;;;;;44.47;20.33;;;;;;;-0.69;94.15;100692.84;5113351;28;20066;-80
2021/12/13 06:57:51;;;;;;;50.50;20.42;;;;;;;-0.70;93.83;100700.84;5113587;28;20385;-77
2021/12/13 07:00:28;;;;;;;45.22;19.98;;;;;;;-0.69;94.59;100708.78;5113621;27;20455;-77
2021/12/13 07:03:00;;;;;;;40.88;17.35;;;;;;;-0.67;94.58;100712.31;5114988;27;20508;-83
2021/12/13 07:05:30;;;;;;;46.00;16.70;;;;;;;-0.64;94.55;100708.81;5113773;27;20064;-84
2021/12/13 07:08:01;;;;;;;43.65;16.55;;;;;;;-0.65;95.14;100715.88;5113842;27;20044;-83
2021/12/13 07:10:35;;;;;;;42.10;16.85;;;;;;;-0.68;94.69;100712.34;5114564;28;20051;-83
2021/12/13 07:13:05;;;;;;;43.33;15.85;;;;;;;-0.60;94.92;100702.63;5114459;27;20043;-77
2021/12/13 07:15:40;;;;;;;45.25;17.70;;;;;;;-0.58;94.38;100706.16;5113282;28;20139;-77
2021/12/13 07:18:16;;;;;;;46.15;16.88;;;;;;;-0.62;94.79;100705.25;5113347;28;20370;-76
2021/12/13 07:20:53;;;;;;;46.20;16.75;;;;;;;-0.61;94.91;100700.84;5113220;28;20044;-83
2021/12/13 07:23:20;;;;;;;56.50;18.98;;;;;;;-0.60;94.63;100706.19;5113669;28;20043;-77
2021/12/13 07:25:51;;;;;;;51.88;17.77;;;;;;;-0.57;94.33;100709.72;5113265;27;20050;-76
2021/12/13 07:28:31;;;;;;;49.17;17.38;;;;;;;-0.66;94.16;100707.91;5114835;27;20040;-77
2021/12/13 07:31:01;;;;;;;47.05;15.98;;;;;;;-0.64;94.53;100709.69;5114722;28;20039;-84
2021/12/13 07:33:38;;;;;;;49.13;16.73;;;;;;;-0.65;94.19;100717.66;5113161;28;20545;-84
2021/12/13 07:36:18;;;;;;;39.80;15.90;;;;;;;-0.62;94.18;100718.53;5112971;28;20044;-77
2021/12/13 07:38:50;;;;;;;43.13;15.90;;;;;;;-0.61;94.46;100719.44;5113167;28;20051;-76
2021/12/13 07:41:19;;;;;;;45.40;15.68;;;;;;;-0.64;93.85;100722.94;5113093;28;20051;-77
2021/12/13 07:43:46;;;;;;;42.38;15.13;;;;;;;-0.57;94.02;100725.66;5113005;28;20051;-76
2021/12/13 07:46:27;;;;;;;42.83;16.25;;;;;;;-0.64;93.94;100738.00;5112919;28;20130;-76
2021/12/13 07:48:57;;;;;;;49.15;17.58;;;;;;;-0.66;94.60;100739.75;5114780;28;20050;-80
2021/12/13 07:51:28;;;;;;;46.60;19.23;;;;;;;-0.71;94.64;100734.44;5112703;28;20051;-77
2021/12/13 07:54:04;;;;;;;44.08;17.67;;;;;;;-0.65;93.85;100734.44;5113733;28;20051;-76
2021/12/13 07:56:45;;;;;;;39.30;17.73;;;;;;;-0.70;93.72;100741.50;5113630;28;20123;-77
2021/12/13 07:59:15;;;;;;;47.28;23.30;;;;;;;-0.74;94.82;100742.38;5128413;27;20039;-76
2021/12/13 08:01:48;;;;;;;42.42;19.55;;;;;;;-0.73;94.33;100745.03;5137375;27;20043;-77
2021/12/13 08:04:21;;;;;;;52.30;21.65;;;;;;;-0.74;94.27;100743.28;5132050;27;20051;-78
2021/12/13 08:06:51;;;;;;;110.00;51.85;;;;;;;-0.71;94.70;100739.72;5117188;28;20048;-77
2021/12/13 08:09:23;;;;;;;96.13;40.67;;;;;;;-0.77;94.78;100742.38;5115303;27;20040;-77
2021/12/13 08:11:55;;;;;;;294.13;122.13;;;;;;;-0.69;94.65;100743.28;5115695;27;20123;-76
2021/12/13 08:14:29;;;;;;;91.40;38.10;;;;;;;-0.65;94.46;100745.06;5116126;28;20050;-77
2021/12/13 08:17:09;;;;;;;45.03;18.70;;;;;;;-0.61;94.42;100746.88;5112859;28;20043;-78
2021/12/13 08:19:37;;;;;;;43.08;16.77;;;;;;;-0.55;94.39;100753.94;5113647;28;20047;-80
2021/12/13 08:22:13;;;;;;;42.95;16.02;;;;;;;-0.57;94.91;100742.44;5114705;28;20051;-77
2021/12/13 08:24:43;;;;;;;43.92;16.70;;;;;;;-0.54;94.65;100745.09;5113087;28;20040;-79
2021/12/13 08:27:13;;;;;;;47.20;17.65;;;;;;;-0.52;94.80;100753.09;5115177;27;20039;-76
2021/12/13 08:29:42;;;;;;;49.17;17.50;;;;;;;-0.54;94.81;100754.84;5116119;28;20044;-79
2021/12/13 08:32:14;;;;;;;46.22;17.33;;;;;;;-0.60;95.61;100756.59;5115484;27;20052;-77
2021/12/13 08:34:47;;;;;;;41.97;15.40;;;;;;;-0.60;95.26;100763.66;5115024;27;20044;-84
2021/12/13 08:37:19;;;;;;;49.70;16.23;;;;;;;-0.65;95.38;100758.31;5112011;28;20040;-82
2021/12/13 08:39:48;;;;;;;49.92;16.80;;;;;;;-0.58;95.03;100772.53;5115710;27;20055;-77
2021/12/13 08:42:19;;;;;;;45.38;16.38;;;;;;;-0.61;94.62;100773.41;5112219;28;20124;-77
2021/12/13 08:44:49;;;;;;;41.30;14.98;;;;;;;-0.66;95.12;100779.56;5114802;27;20043;-77
2021/12/13 08:47:20;;;;;;;45.38;16.17;;;;;;;-0.64;94.48;100776.03;5111625;28;20385;-77
2021/12/13 08:49:50;;;;;;;39.35;15.48;;;;;;;-0.64;95.08;100772.50;5114876;27;20044;-80
2021/12/13 08:52:24;;;;;;;50.63;17.92;;;;;;;-0.62;95.30;100766.31;5114415;27;20446;-79
2021/12/13 08:54:57;;;;;;;44.60;14.90;;;;;;;-0.64;94.97;100769.84;5116899;27;20040;-79
2021/12/13 08:57:39;;;;;;;43.75;15.23;;;;;;;-0.65;94.39;100768.94;5115963;28;20089;-82
2021/12/13 09:00:19;;;;;;;37.28;14.20;;;;;;;-0.66;94.62;100768.97;5114518;28;20043;-78
2021/12/13 09:02:52;;;;;;;44.88;14.82;;;;;;;-0.69;94.14;100766.28;5114447;28;20055;-81
2021/12/13 09:05:23;;;;;;;40.10;15.02;;;;;;;-0.68;94.69;100776.03;5113750;28;20400;-83
2021/12/13 09:07:55;;;;;;;44.33;15.43;;;;;;;-0.67;94.38;100783.09;5115802;27;20047;-80
2021/12/13 09:10:38;;;;;;;38.75;14.07;;;;;;;-0.70;94.06;100781.31;5115818;27;20044;-76
2021/12/13 09:13:06;;;;;;;38.38;14.65;;;;;;;-0.63;94.23;100782.22;5113811;28;20039;-78
2021/12/13 09:15:34;;;;;;;42.63;16.02;;;;;;;-0.69;93.68;100772.47;5111631;28;20047;-78
2021/12/13 09:18:05;;;;;;;41.88;14.52;;;;;;;-0.68;94.16;100768.94;5113509;27;20047;-78
2021/12/13 09:20:39;;;;;;;37.33;13.77;;;;;;;-0.75;94.10;100764.47;5114740;27;20100;-78
2021/12/13 09:23:10;;;;;;;39.97;17.02;;;;;;;-0.71;94.13;100773.34;5114313;27;20052;-78
2021/12/13 09:25:40;;;;;;;39.42;14.35;;;;;;;-0.72;94.06;100756.53;5112461;28;20047;-77
2021/12/13 09:28:12;;;;;;;37.95;14.40;;;;;;;-0.65;94.11;100763.63;5110441;27;20461;-77
2021/12/13 09:30:43;;;;;;;44.35;15.18;;;;;;;-0.72;94.07;100761.84;5108116;28;20048;-78
2021/12/13 09:33:19;;;;;;;48.47;16.63;;;;;;;-0.67;93.73;100767.19;5111971;28;20047;-76
2021/12/13 09:35:50;;;;;;;38.67;15.82;;;;;;;-0.73;93.58;100762.72;5111679;27;20044;-77
2021/12/13 09:38:38;;;;;;;41.38;14.93;;;;;;;-0.73;94.00;100757.41;5112866;28;20059;-77
2021/12/13 09:41:15;;;;;;;41.05;14.35;;;;;;;-0.69;94.29;100761.84;5111754;28;20044;-77
2021/12/13 09:43:45;;;;;;;;;;;;;;;-0.70;93.79;100752.13;5112820;28;20054;-77
2021/12/13 09:46:20;;;;;;;36.92;14.52;;;;;;;-0.74;94.04;100753.00;5112315;28;19923;-77
2021/12/13 09:48:52;;;;;;;39.40;15.52;;;;;;;-0.74;94.04;100748.59;5110331;27;20153;-77
2021/12/13 09:51:23;;;;;;;42.75;15.05;;;;;;;-0.71;93.42;100747.69;5110798;28;20047;-77
2021/12/13 09:53:54;;;;;;;39.78;14.68;;;;;;;-0.70;94.22;100751.25;5111318;28;20555;-77
2021/12/13 09:56:23;;;;;;;39.05;15.27;;;;;;;-0.69;93.56;100751.25;5112312;27;20048;-76
2021/12/13 09:58:53;;;;;;;50.83;19.25;;;;;;;-0.68;93.58;100753.00;5110882;27;20046;-77
2021/12/13 10:01:24;;;;;;;43.45;15.80;;;;;;;-0.68;93.54;100746.84;5110995;28;20040;-77
2021/12/13 10:03:57;;;;;;;43.50;16.45;;;;;;;-0.73;94.33;100752.09;5111642;27;20055;-77
2021/12/13 10:06:30;;;;;;;42.78;15.63;;;;;;;-0.77;94.61;100758.28;5110833;27;20058;-77
2021/12/13 10:09:01;;;;;;;54.60;20.92;;;;;;;-0.71;93.94;100753.00;5112424;28;20050;-79
2021/12/13 10:11:33;;;;;;;40.28;15.10;;;;;;;-0.67;94.10;100753.91;5110687;27;20050;-77
2021/12/13 10:14:01;;;;;;;37.65;15.52;;;;;;;-0.67;93.67;100745.94;5110627;28;20051;-76
2021/12/13 10:16:32;;;;;;;46.50;15.90;;;;;;;-0.66;94.03;100755.69;5109412;28;20048;-76
2021/12/13 10:19:04;;;;;;;42.92;16.13;;;;;;;-0.69;93.80;100748.59;5110852;28;20149;-76
2021/12/13 10:21:34;;;;;;;47.72;18.08;;;;;;;-0.70;94.27;100745.94;5111959;28;20059;-76
2021/12/13 10:24:06;;;;;;;45.17;16.65;;;;;;;-0.68;94.13;100744.19;5110481;28;20051;-76
2021/12/13 10:26:38;;;;;;;46.20;16.40;;;;;;;-0.66;94.57;100743.28;5111118;28;20044;-77
2021/12/13 10:29:07;;;;;;;79.22;32.40;;;;;;;-0.64;94.13;100748.63;5110673;28;20425;-78
2021/12/13 10:31:40;;;;;;;104.40;36.58;;;;;;;-0.67;93.93;100751.25;5109384;28;20046;-77
2021/12/13 10:34:13;;;;;;;43.63;15.68;;;;;;;-0.61;94.03;100753.94;5110376;28;20574;-77
2021/12/13 10:36:44;;;;;;;65.63;24.60;;;;;;;-0.61;93.88;100748.63;5112017;28;20043;-77
2021/12/13 10:39:14;;;;;;;46.50;15.23;;;;;;;-0.60;93.90;100751.31;5114565;28;20047;-77
2021/12/13 10:41:44;;;;;;;43.17;16.13;;;;;;;-0.60;94.25;100746.00;5115158;28;20047;-78
2021/12/13 10:44:15;;;;;;;47.22;16.80;;;;;;;-0.63;93.96;100751.25;5113532;27;20072;-78
2021/12/13 10:46:45;;;;;;;47.22;17.20;;;;;;;-0.62;94.29;100745.06;5113887;28;20044;-77
2021/12/13 10:49:17;;;;;;;58.53;22.52;;;;;;;-0.61;93.90;100752.19;5113907;27;20047;-77
2021/12/13 10:51:54;;;;;;;94.65;34.47;;;;;;;-0.68;94.69;100750.34;5114511;28;20040;-77
2021/12/13 10:54:25;;;;;;;44.88;16.15;;;;;;;-0.65;94.39;100747.72;5114998;28;20455;-77
2021/12/13 10:56:56;;;;;;;44.45;15.52;;;;;;;-0.68;94.32;100744.19;5113720;28;20054;-77
2021/12/13 10:59:26;;;;;;;66.25;22.65;;;;;;;-0.70;94.08;100748.59;5113486;28;20067;-77
2021/12/13 11:01:56;;;;;;;61.80;21.50;;;;;;;-0.60;93.78;100753.06;5113707;28;20048;-77
2021/12/13 11:04:28;;;;;;;86.90;30.65;;;;;;;-0.64;94.52;100751.28;5113753;28;20043;-77
2021/12/13 11:06:57;;;;;;;186.07;56.83;;;;;;;-0.74;94.48;100742.38;5115020;27;20039;-77
2021/12/13 11:09:26;;;;;;;49.13;18.00;;;;;;;-0.68;94.27;100744.19;5113446;28;20047;-77
2021/12/13 11:11:56;;;;;;;50.38;16.33;;;;;;;-0.57;94.51;100736.28;5113154;28;20044;-76
2021/12/13 11:14:25;;;;;;;41.53;15.20;;;;;;;-0.61;94.33;100738.91;5123203;27;20043;-76
2021/12/13 11:16:55;;;;;;;47.72;15.38;;;;;;;-0.67;94.25;100728.25;5134140;27;20043;-76
2021/12/13 11:19:26;;;;;;;44.03;16.30;;;;;;;-0.68;94.81;100731.78;5121508;27;20074;-76
2021/12/13 11:22:00;;;;;;;48.72;16.73;;;;;;;-0.62;94.87;100738.88;5113979;27;20059;-76
2021/12/13 11:24:29;;;;;;;48.50;15.63;;;;;;;-0.63;94.36;100734.47;5114160;28;20100;-76
2021/12/13 11:27:02;;;;;;;56.28;17.75;;;;;;;-0.66;94.85;100745.06;5112969;28;20043;-75
2021/12/13 11:29:31;;;;;;;46.13;16.13;;;;;;;-0.63;94.81;100743.28;5113543;28;20047;-76
2021/12/13 11:32:44;;;;;;;43.90;15.55;;;;;;;-0.62;94.82;100739.75;5113146;28;20105;-76
2021/12/13 11:35:56;;;;;;;41.10;15.20;;;;;;;-0.55;93.73;100745.13;5054120;28;20053;-76
2021/12/13 11:38:37;;;;;;;40.53;15.40;;;;;;;-0.63;94.53;100748.59;5054436;28;20502;-76